Time;durP1;ratioP1;P1;durP2;ratioP2;P2;SDS_P1;SDS_P2;PMS_P1;PMS_P2;Temp;Humidity;BMP_temperature;BMP_pressure;BME280_temperature;BME280_humidity;BME280_pressure;Samples;Min_cycle;Max_cycle;Signal;HPM_P1;HPM_P2
2022/05/17 00:00:26;;;;;;;5.53;3.67;;;22.80;53.10;21.70;101554.00;;;;5043606;28;20713;-71
2022/05/17 00:03:13;;;;;;;6.53;3.60;;;22.70;53.00;21.70;101551.00;;;;5044988;28;20036;-71
2022/05/17 00:05:59;;;;;;;6.32;4.13;;;22.70;53.00;21.70;101552.00;;;;5029027;28;20075;-71
2022/05/17 00:08:46;;;;;;;4.38;3.25;;;22.80;53.70;21.70;101544.00;;;;5044433;28;20040;-71
2022/05/17 00:11:32;;;;;;;4.82;2.92;;;22.70;52.90;21.70;101543.00;;;;5030657;28;20417;-71
2022/05/17 00:14:18;;;;;;;4.43;3.13;;;22.80;52.90;21.70;101545.00;;;;5045550;28;20617;-71
2022/05/17 00:17:04;;;;;;;4.60;2.90;;;22.70;52.90;21.70;101545.00;;;;5034288;28;20041;-71
2022/05/17 00:19:50;;;;;;;4.25;2.90;;;22.70;52.80;21.70;101548.00;;;;5057240;28;20045;-71
2022/05/17 00:22:36;;;;;;;6.07;3.03;;;22.70;52.80;21.80;101540.00;;;;5054987;28;20470;-71
2022/05/17 00:25:22;;;;;;;3.50;2.85;;;22.70;52.80;21.70;101532.00;;;;5056571;28;20124;-71
2022/05/17 00:28:08;;;;;;;3.35;2.60;;;22.70;52.60;21.80;101535.00;;;;5044942;28;20032;-71
2022/05/17 00:30:54;;;;;;;6.22;2.92;;;22.70;52.70;21.80;101527.00;;;;5049649;28;20049;-71
2022/05/17 00:33:40;;;;;;;4.53;2.70;;;22.70;52.70;21.80;101534.00;;;;5054282;28;20565;-71
2022/05/17 00:36:27;;;;;;;5.72;2.90;;;22.70;52.60;21.70;101534.00;;;;5045122;28;20045;-71
2022/05/17 00:39:13;;;;;;;3.42;2.40;;;22.70;52.60;21.70;101527.00;;;;5043802;28;20616;-71
2022/05/17 00:41:59;;;;;;;4.50;2.50;;;22.70;52.50;21.70;101523.00;;;;5039777;28;20047;-71
2022/05/17 00:44:46;;;;;;;2.95;2.33;;;22.70;52.60;21.70;101532.00;;;;5044134;28;20041;-71
2022/05/17 00:47:41;;;;;;;4.82;2.67;;;22.70;52.50;21.80;101533.00;;;;5058461;28;20476;-71
2022/05/17 00:50:41;;;;;;;3.13;2.10;;;22.80;52.60;21.70;101527.00;;;;5053622;28;20072;-71
2022/05/17 00:53:32;;;;;;;3.72;2.40;;;22.90;52.60;21.70;101538.00;;;;5047408;28;20064;-71
2022/05/17 00:56:21;;;;;;;4.53;2.47;;;22.70;52.50;21.70;101537.00;;;;5042636;28;20044;-71
2022/05/17 00:59:07;;;;;;;4.47;2.20;;;22.80;52.50;21.70;101537.00;;;;5043137;28;20041;-71
2022/05/17 01:01:53;;;;;;;3.65;2.40;;;22.70;52.50;21.70;101538.00;;;;5040416;28;20083;-71
2022/05/17 01:04:39;;;;;;;2.83;2.13;;;22.80;52.50;21.70;101545.00;;;;5038841;28;20040;-71
2022/05/17 01:07:28;;;;;;;5.18;2.35;;;22.70;52.40;21.70;101546.00;;;;5041645;28;20047;-73
2022/05/17 01:10:14;;;;;;;4.38;2.47;;;22.70;52.40;21.70;101544.00;;;;5040495;28;20045;-72
2022/05/17 01:16:05;;;;;;;3.72;2.17;;;22.80;52.50;21.70;101549.00;;;;5042926;28;20052;-72
2022/05/17 01:18:52;;;;;;;3.53;2.30;;;22.80;52.50;21.70;101551.00;;;;5039425;28;20048;-72
2022/05/17 01:21:38;;;;;;;4.03;1.65;;;22.70;52.40;21.70;101548.00;;;;5053764;28;20398;-72
2022/05/17 01:24:25;;;;;;;3.45;2.17;;;22.70;52.40;21.70;101551.00;;;;5028724;28;20180;-72
2022/05/17 01:27:43;;;;;;;2.92;2.00;;;22.70;52.50;21.70;101543.00;;;;5045769;28;20307;-72
2022/05/17 01:30:30;;;;;;;3.23;2.13;;;22.70;52.50;21.70;101545.00;;;;5027841;28;20124;-72
2022/05/17 01:33:19;;;;;;;3.53;1.98;;;22.70;52.50;21.70;101549.00;;;;5042072;28;20283;-72
2022/05/17 01:36:10;;;;;;;3.22;1.90;;;22.70;52.40;21.70;101548.00;;;;5049703;28;20040;-72
2022/05/17 01:38:56;;;;;;;5.35;2.10;;;22.70;52.40;21.70;101550.00;;;;5062021;28;20521;-72
2022/05/17 01:41:42;;;;;;;2.33;1.75;;;22.70;52.40;21.70;101549.00;;;;5048523;28;20087;-72
2022/05/17 01:44:28;;;;;;;4.35;2.17;;;22.60;52.40;21.70;101537.00;;;;5051835;28;20040;-72
2022/05/17 01:47:14;;;;;;;2.50;1.73;;;22.70;52.40;21.70;101546.00;;;;5044487;28;20055;-72
2022/05/17 01:50:00;;;;;;;5.68;2.17;;;22.70;52.40;21.70;101539.00;;;;5057889;28;20041;-72
2022/05/17 01:52:46;;;;;;;4.28;2.20;;;22.70;52.40;21.70;101537.00;;;;5043163;28;20545;-72
2022/05/17 01:55:32;;;;;;;2.25;1.70;;;22.60;52.40;21.70;101535.00;;;;5040476;28;20052;-72
2022/05/17 01:58:18;;;;;;;4.15;1.98;;;22.60;52.40;21.70;101544.00;;;;5043327;28;20041;-72
2022/05/17 02:01:07;;;;;;;2.35;2.00;;;22.60;52.40;21.70;101533.00;;;;5042566;28;20041;-72
2022/05/17 02:03:53;;;;;;;3.30;1.80;;;22.60;52.40;21.70;101535.00;;;;5053959;28;20091;-71
2022/05/17 02:06:39;;;;;;;4.38;1.83;;;22.60;52.40;21.70;101538.00;;;;5040358;28;20568;-71
2022/05/17 02:09:25;;;;;;;5.00;2.38;;;22.60;52.40;21.70;101535.00;;;;5041651;28;20045;-72
2022/05/17 02:12:12;;;;;;;3.03;1.52;;;22.60;52.40;21.60;101535.00;;;;5046724;28;20052;-72
2022/05/17 02:14:58;;;;;;;3.58;1.83;;;22.60;52.50;21.60;101531.00;;;;5039363;28;20045;-72
2022/05/17 02:17:44;;;;;;;2.50;1.65;;;22.60;52.50;21.60;101531.00;;;;5044713;28;20037;-71
2022/05/17 02:20:30;;;;;;;2.63;1.60;;;22.60;52.40;21.60;101532.00;;;;5041002;28;20406;-72
2022/05/17 02:23:16;;;;;;;3.88;1.50;;;22.60;52.40;21.60;101531.00;;;;5042328;28;20037;-72
2022/05/17 02:26:02;;;;;;;3.35;1.83;;;22.60;52.40;21.60;101537.00;;;;5040931;28;20040;-71
2022/05/17 02:28:48;;;;;;;3.45;1.83;;;22.50;52.40;21.60;101529.00;;;;5053846;28;20048;-72
2022/05/17 02:31:34;;;;;;;6.47;2.03;;;22.50;52.40;21.60;101531.00;;;;5039598;28;20556;-72
2022/05/17 02:34:20;;;;;;;2.42;1.67;;;22.50;52.40;21.60;101531.00;;;;5040801;28;20108;-71
2022/05/17 02:37:06;;;;;;;3.22;1.42;;;22.50;52.30;21.60;101531.00;;;;5041995;28;20045;-73
2022/05/17 02:39:53;;;;;;;3.08;1.45;;;22.60;52.40;21.60;101533.00;;;;5044211;28;20076;-73
2022/05/17 02:42:39;;;;;;;1.70;1.60;;;22.50;52.30;21.60;101538.00;;;;5043909;28;20398;-72
2022/05/17 02:45:25;;;;;;;2.63;1.67;;;22.50;52.40;21.60;101548.00;;;;5042026;28;20044;-72
2022/05/17 02:48:11;;;;;;;2.67;1.65;;;22.50;52.40;21.60;101545.00;;;;5047886;28;20095;-72
2022/05/17 02:51:06;;;;;;;3.28;2.15;;;22.50;52.40;21.60;101545.00;;;;5039284;28;20052;-72
2022/05/17 02:53:52;;;;;;;2.78;1.67;;;22.50;52.40;21.60;101548.00;;;;5054572;28;20128;-72
2022/05/17 02:56:38;;;;;;;2.30;1.80;;;22.50;52.40;21.60;101547.00;;;;5044740;28;20041;-72
2022/05/17 02:59:24;;;;;;;2.63;1.70;;;22.40;52.20;21.50;101546.00;;;;5052937;28;20049;-72
2022/05/17 03:02:10;;;;;;;2.25;1.33;;;22.40;52.20;21.50;101556.00;;;;5023725;28;20041;-72
2022/05/17 03:04:56;;;;;;;3.28;1.40;;;22.40;52.20;21.50;101556.00;;;;5043062;28;20103;-72
2022/05/17 03:07:43;;;;;;;1.77;1.15;;;22.40;52.20;21.50;101562.00;;;;5034725;28;20048;-72
2022/05/17 03:10:31;;;;;;;2.88;1.40;;;22.40;52.20;21.50;101568.00;;;;5043927;28;20128;-72
2022/05/17 03:13:17;;;;;;;2.50;1.27;;;22.40;52.30;21.50;101566.00;;;;5044660;28;20498;-72
2022/05/17 03:16:04;;;;;;;1.85;1.40;;;22.30;52.30;21.50;101570.00;;;;5044082;28;20106;-72
2022/05/17 03:18:50;;;;;;;2.78;1.40;;;22.40;52.40;21.50;101573.00;;;;5042743;28;20041;-72
2022/05/17 03:21:37;;;;;;;3.35;1.95;;;22.30;52.30;21.50;101569.00;;;;5046573;28;20033;-72
2022/05/17 03:24:23;;;;;;;1.80;1.33;;;22.40;52.20;21.50;101572.00;;;;5052250;28;20045;-72
2022/05/17 03:27:09;;;;;;;3.55;1.85;;;22.30;52.20;21.50;101574.00;;;;5041652;28;20039;-72
2022/05/17 03:29:55;;;;;;;2.97;1.33;;;22.30;52.20;21.50;101574.00;;;;5046905;28;20041;-72
2022/05/17 03:32:41;;;;;;;1.95;1.50;;;22.30;52.20;21.50;101575.00;;;;5057836;28;20052;-72
2022/05/17 03:35:27;;;;;;;2.15;1.40;;;22.30;52.20;21.50;101579.00;;;;5046650;28;20045;-72
2022/05/17 03:38:13;;;;;;;2.40;1.48;;;22.30;52.30;21.40;101584.00;;;;5044762;28;20044;-73
2022/05/17 03:40:59;;;;;;;1.52;1.42;;;22.30;52.30;21.40;101578.00;;;;5043707;28;20112;-72
2022/05/17 03:43:45;;;;;;;2.38;1.60;;;22.30;52.30;21.40;101579.00;;;;5044055;28;20399;-72
2022/05/17 03:46:31;;;;;;;2.75;1.48;;;22.30;52.30;21.40;101577.00;;;;5046781;28;20040;-72
2022/05/17 03:49:17;;;;;;;2.58;1.48;;;22.30;52.20;21.40;101576.00;;;;5043039;28;20115;-72
2022/05/17 03:52:04;;;;;;;2.75;1.50;;;22.30;52.30;21.40;101575.00;;;;5048055;28;20048;-72
2022/05/17 03:54:55;;;;;;;2.03;1.23;;;22.30;52.30;21.40;101575.00;;;;5038814;28;20040;-72
2022/05/17 03:57:41;;;;;;;2.13;1.30;;;22.30;52.30;21.40;101587.00;;;;5040404;28;20032;-72
2022/05/17 04:00:27;;;;;;;1.42;1.25;;;22.20;52.20;21.40;101578.00;;;;5040775;28;20053;-72
2022/05/17 04:03:13;;;;;;;1.30;1.15;;;22.30;52.30;21.40;101581.00;;;;5045736;28;20036;-72
2022/05/17 04:05:59;;;;;;;1.88;1.15;;;22.20;52.90;21.40;101584.00;;;;5045986;28;20462;-72
2022/05/17 04:08:45;;;;;;;2.20;1.35;;;22.20;52.20;21.40;101582.00;;;;5058476;28;20049;-72
2022/05/17 04:11:33;;;;;;;1.80;1.10;;;22.20;52.20;21.40;101588.00;;;;5049880;28;20048;-72
2022/05/17 04:14:19;;;;;;;2.30;1.30;;;22.10;52.70;21.40;101587.00;;;;5044823;28;20056;-72
2022/05/17 04:17:05;;;;;;;3.45;1.52;;;22.20;52.10;21.40;101588.00;;;;5044915;28;20051;-72
2022/05/17 04:19:51;;;;;;;2.28;1.10;;;22.20;52.00;21.40;101591.00;;;;5040454;28;20092;-72
2022/05/17 04:22:41;;;;;;;2.22;1.20;;;22.20;52.10;21.40;101589.00;;;;5044937;28;20041;-71
2022/05/17 04:25:27;;;;;;;1.48;1.13;;;22.20;52.10;21.40;101596.00;;;;5038572;28;20577;-72
2022/05/17 04:28:13;;;;;;;1.35;1.25;;;22.20;52.10;21.40;101596.00;;;;5045416;28;20080;-72
2022/05/17 04:30:59;;;;;;;2.30;1.33;;;22.20;52.10;21.40;101594.00;;;;5040477;28;20119;-72
2022/05/17 04:33:45;;;;;;;1.48;1.38;;;22.20;52.00;21.40;101593.00;;;;5041571;28;20049;-72
2022/05/17 04:36:33;;;;;;;3.97;1.30;;;22.20;52.00;21.40;101603.00;;;;5058532;28;20468;-72
2022/05/17 04:39:20;;;;;;;1.67;1.25;;;22.20;52.00;21.40;101591.00;;;;5059161;28;20033;-72
2022/05/17 04:42:07;;;;;;;1.40;1.30;;;22.20;52.00;21.40;101591.00;;;;5045482;28;20037;-72
2022/05/17 04:44:53;;;;;;;1.60;1.40;;;22.20;52.00;21.40;101601.00;;;;5050360;28;20128;-72
2022/05/17 04:47:40;;;;;;;2.22;1.42;;;22.20;51.90;21.40;101607.00;;;;5052085;28;20060;-72
2022/05/17 04:50:26;;;;;;;1.95;1.58;;;22.20;51.90;21.40;101604.00;;;;5060154;28;20041;-72
2022/05/17 04:53:12;;;;;;;2.75;1.60;;;22.20;51.90;21.40;101615.00;;;;5044568;28;20157;-72
2022/05/17 04:55:58;;;;;;;1.40;1.25;;;22.20;51.90;21.40;101607.00;;;;5040273;28;20044;-72
2022/05/17 04:58:44;;;;;;;2.30;1.45;;;22.30;52.00;21.40;101618.00;;;;5043869;28;20399;-72
2022/05/17 05:01:31;;;;;;;4.53;1.52;;;22.20;51.90;21.40;101619.00;;;;5039634;28;20136;-72
2022/05/17 05:04:17;;;;;;;2.58;1.60;;;22.20;51.90;21.40;101619.00;;;;5052137;28;20049;-72
2022/05/17 05:07:04;;;;;;;2.45;1.80;;;22.30;51.90;21.40;101619.00;;;;5052216;28;20394;-72
2022/05/17 05:09:50;;;;;;;2.65;1.90;;;22.30;51.80;21.40;101614.00;;;;5044624;28;20047;-72
2022/05/17 05:12:37;;;;;;;5.35;1.75;;;22.30;51.80;21.40;101623.00;;;;5049093;28;20040;-72
2022/05/17 05:15:24;;;;;;;2.05;1.75;;;22.30;51.80;21.40;101618.00;;;;5054749;28;20402;-72
2022/05/17 05:18:10;;;;;;;2.28;1.58;;;22.30;51.90;21.40;101618.00;;;;5044178;28;20471;-72
2022/05/17 05:21:11;;;;;;;3.58;1.40;;;22.30;51.90;21.40;101618.00;;;;5044540;28;20052;-72
2022/05/17 05:23:57;;;;;;;2.72;1.73;;;22.30;51.90;21.40;101607.00;;;;5026564;28;20045;-72
2022/05/17 05:26:43;;;;;;;3.90;1.70;;;22.20;51.80;21.40;101615.00;;;;5044848;28;20044;-72
2022/05/17 05:29:29;;;;;;;2.25;1.45;;;22.30;51.90;21.40;101623.00;;;;5045346;28;20402;-72
2022/05/17 05:32:16;;;;;;;3.10;1.90;;;22.30;51.90;21.40;101616.00;;;;5045276;28;20095;-72
2022/05/17 05:35:02;;;;;;;2.92;1.70;;;22.30;51.90;21.40;101618.00;;;;5055095;28;20045;-72
2022/05/17 05:37:49;;;;;;;4.03;1.70;;;22.30;51.90;21.40;101617.00;;;;5029555;28;20029;-72
2022/05/17 05:40:35;;;;;;;2.80;1.60;;;22.40;51.90;21.40;101619.00;;;;5048808;28;20064;-72
2022/05/17 05:43:21;;;;;;;2.20;1.30;;;22.40;51.90;21.40;101626.00;;;;5046565;28;20057;-72
2022/05/17 05:46:07;;;;;;;2.28;1.40;;;22.40;52.60;21.40;101626.00;;;;5038935;28;20426;-72
2022/05/17 05:48:53;;;;;;;3.00;1.60;;;22.40;51.90;21.40;101619.00;;;;5038116;28;20040;-72
2022/05/17 05:51:40;;;;;;;2.88;1.60;;;22.40;52.00;21.40;101620.00;;;;5047568;28;20046;-72
2022/05/17 05:54:26;;;;;;;2.72;1.60;;;22.40;52.00;21.40;101633.00;;;;5039605;28;20127;-72
2022/05/17 05:57:12;;;;;;;2.53;1.52;;;22.40;52.00;21.40;101626.00;;;;5046576;28;20517;-72
2022/05/17 05:59:59;;;;;;;2.10;1.40;;;22.40;52.00;21.40;101630.00;;;;5053811;28;20053;-72
2022/05/17 06:02:45;;;;;;;2.03;1.75;;;22.40;52.00;21.40;101632.00;;;;5028443;28;20192;-72
2022/05/17 06:05:31;;;;;;;4.97;1.80;;;22.40;52.00;21.40;101636.00;;;;5046417;28;20062;-72
2022/05/17 06:08:17;;;;;;;4.45;1.98;;;22.50;52.10;21.40;101629.00;;;;5025056;28;20037;-72
2022/05/17 06:11:03;;;;;;;3.42;1.95;;;22.50;52.10;21.40;101627.00;;;;5029594;28;20494;-72
2022/05/17 06:13:50;;;;;;;5.00;2.40;;;22.40;52.00;21.40;101624.00;;;;5055543;28;20048;-72
2022/05/17 06:16:36;;;;;;;2.50;1.83;;;22.40;52.00;21.40;101624.00;;;;5047991;28;20098;-72
2022/05/17 06:19:25;;;;;;;2.30;1.70;;;22.50;52.10;21.40;101629.00;;;;5046847;28;20055;-72
2022/05/17 06:22:11;;;;;;;4.88;1.73;;;22.40;52.10;21.40;101623.00;;;;5049116;28;20052;-72
2022/05/17 06:24:57;;;;;;;2.75;2.05;;;22.50;52.10;21.40;101620.00;;;;5044552;28;20072;-72
2022/05/17 06:27:43;;;;;;;5.72;2.15;;;22.50;52.20;21.40;101627.00;;;;5058274;28;20063;-72
2022/05/17 06:30:30;;;;;;;4.25;1.83;;;22.50;52.10;21.40;101624.00;;;;5026497;28;20036;-72
2022/05/17 06:33:16;;;;;;;4.03;2.20;;;22.50;52.20;21.40;101620.00;;;;5052423;28;20372;-72
2022/05/17 06:36:02;;;;;;;3.20;2.03;;;22.50;52.10;21.40;101635.00;;;;5055096;28;20506;-72
2022/05/17 06:38:48;;;;;;;6.05;3.22;;;22.50;52.10;21.40;101641.00;;;;5047206;28;20418;-72
2022/05/17 06:41:35;;;;;;;3.28;1.95;;;22.50;52.10;21.40;101641.00;;;;5043106;28;20041;-72
2022/05/17 06:44:21;;;;;;;3.33;2.08;;;22.50;52.20;21.40;101648.00;;;;5051329;28;20041;-72
2022/05/17 06:47:07;;;;;;;5.28;2.05;;;22.50;52.20;21.40;101643.00;;;;5033620;28;20076;-72
2022/05/17 06:49:53;;;;;;;7.90;2.65;;;22.50;52.10;21.50;101637.00;;;;5042131;28;20514;-72
2022/05/17 06:52:40;;;;;;;2.97;1.88;;;22.50;52.20;21.40;101642.00;;;;5054899;28;20040;-72
2022/05/17 06:55:27;;;;;;;3.10;2.07;;;22.50;52.20;21.50;101649.00;;;;5053340;28;20080;-72
2022/05/17 06:58:13;;;;;;;4.53;2.15;;;22.50;52.30;21.50;101640.00;;;;5057571;28;20037;-72
2022/05/17 07:00:59;;;;;;;4.55;2.15;;;22.50;52.30;21.50;101640.00;;;;5057974;28;20040;-72
2022/05/17 07:03:45;;;;;;;3.65;2.22;;;22.60;52.40;21.40;101637.00;;;;5062301;28;20041;-72
2022/05/17 07:06:31;;;;;;;4.55;1.77;;;22.60;52.40;21.50;101640.00;;;;5043541;28;20045;-72
2022/05/17 07:09:20;;;;;;;3.13;1.90;;;22.60;52.30;21.50;101647.00;;;;5045951;28;20549;-72
2022/05/17 07:15:11;;;;;;;2.63;1.88;;;22.60;52.40;21.50;101659.00;;;;5039194;28;20049;-72
2022/05/17 07:18:00;;;;;;;4.35;1.55;;;22.60;52.30;21.50;101654.00;;;;5051599;28;20308;-72
2022/05/17 07:20:47;;;;;;;4.00;1.83;;;22.60;52.30;21.50;101663.00;;;;5046702;28;20041;-73
2022/05/17 07:23:33;;;;;;;2.78;1.83;;;22.60;52.10;21.50;101662.00;;;;5057778;28;20714;-72
2022/05/17 07:26:19;;;;;;;5.68;1.77;;;22.50;52.10;21.50;101669.00;;;;5043509;28;20041;-72
2022/05/17 07:29:05;;;;;;;4.65;1.95;;;22.40;52.10;21.50;101664.00;;;;5045673;28;20041;-72
2022/05/17 07:31:51;;;;;;;4.65;1.65;;;22.60;52.20;21.50;101669.00;;;;5056944;28;20417;-72
2022/05/17 07:34:37;;;;;;;2.33;1.40;;;22.60;52.20;21.50;101670.00;;;;5032246;28;20036;-72
2022/05/17 07:37:23;;;;;;;1.98;1.58;;;22.60;52.20;21.50;101672.00;;;;5045659;28;20556;-72
2022/05/17 07:40:12;;;;;;;4.20;2.00;;;22.60;52.10;21.50;101674.00;;;;5049167;28;20048;-72
2022/05/17 07:42:58;;;;;;;3.97;1.55;;;22.60;52.10;21.50;101680.00;;;;5028904;28;20045;-72
2022/05/17 07:45:45;;;;;;;3.97;1.70;;;22.60;52.10;21.50;101675.00;;;;5055177;28;20100;-72
2022/05/17 07:48:31;;;;;;;3.20;1.48;;;22.60;52.10;21.50;101675.00;;;;5036469;28;20045;-72
2022/05/17 07:51:17;;;;;;;3.30;1.55;;;22.70;52.10;21.50;101688.00;;;;5045172;28;20044;-72
2022/05/17 07:54:03;;;;;;;5.00;1.60;;;22.70;52.00;21.50;101680.00;;;;5044584;28;20049;-72
2022/05/17 07:56:49;;;;;;;2.45;1.63;;;22.70;51.80;21.50;101691.00;;;;5041922;28;20048;-72
2022/05/17 07:59:35;;;;;;;2.35;1.38;;;22.70;51.70;21.50;101698.00;;;;5045602;28;20124;-72
2022/05/17 08:02:21;;;;;;;2.40;1.17;;;22.70;51.80;21.50;101692.00;;;;5056370;28;20043;-72
2022/05/17 08:05:09;;;;;;;5.22;1.40;;;22.70;51.90;21.50;101702.00;;;;5043624;28;20036;-72
2022/05/17 08:07:56;;;;;;;3.55;1.23;;;22.70;51.60;21.50;101699.00;;;;5055422;28;20048;-72
2022/05/17 08:10:42;;;;;;;2.28;1.10;;;22.70;51.70;21.50;101706.00;;;;5046824;28;20482;-72
2022/05/17 08:13:30;;;;;;;3.88;1.50;;;22.60;51.60;21.50;101705.00;;;;5053599;28;20044;-72
2022/05/17 08:16:16;;;;;;;4.38;1.17;;;22.70;51.40;21.50;101701.00;;;;5046846;28;20078;-72
2022/05/17 08:19:03;;;;;;;2.65;1.45;;;22.70;52.20;21.50;101709.00;;;;5044613;28;20048;-72
2022/05/17 08:21:49;;;;;;;1.88;1.00;;;22.70;51.40;21.50;101713.00;;;;5057676;28;20047;-72
2022/05/17 08:27:41;;;;;;;2.00;1.10;;;22.70;51.60;21.50;101704.00;;;;5060106;28;20105;-72
2022/05/17 08:30:30;;;;;;;3.47;1.40;;;22.80;51.60;21.50;101712.00;;;;5043197;28;20513;-72
2022/05/17 08:33:17;;;;;;;2.72;1.10;;;22.70;51.30;21.50;101713.00;;;;5046109;28;20132;-72
2022/05/17 08:36:10;;;;;;;3.85;1.33;;;22.70;51.30;21.50;101706.00;;;;5058001;28;20051;-72
2022/05/17 08:38:56;;;;;;;3.90;1.20;;;22.70;51.30;21.50;101706.00;;;;5052626;28;20118;-73
2022/05/17 08:41:45;;;;;;;3.15;1.52;;;22.70;51.20;21.50;101711.00;;;;5052782;28;20040;-72
2022/05/17 08:44:46;;;;;;;2.50;1.20;;;22.80;51.10;21.50;101706.00;;;;5034488;28;20041;-72
2022/05/17 08:47:51;;;;;;;3.28;1.30;;;22.70;51.00;21.50;101710.00;;;;5044395;28;20039;-72
2022/05/17 08:50:38;;;;;;;2.05;1.00;;;22.70;50.90;21.50;101711.00;;;;5054471;28;20410;-73
2022/05/17 08:53:24;;;;;;;3.38;1.40;;;22.80;51.00;21.50;101717.00;;;;5034531;28;20071;-72
2022/05/17 08:56:10;;;;;;;2.95;1.40;;;22.80;51.10;21.50;101718.00;;;;5045241;28;20415;-72
2022/05/17 08:58:56;;;;;;;3.47;1.20;;;22.70;51.00;21.50;101717.00;;;;5044810;28;20048;-72
2022/05/17 09:01:46;;;;;;;2.80;0.90;;;22.80;51.00;21.50;101716.00;;;;5029094;28;20041;-72
2022/05/17 09:05:25;;;;;;;2.00;0.70;;;22.80;50.80;21.50;101718.00;;;;5042447;28;20044;-72
2022/05/17 09:08:28;;;;;;;2.65;0.98;;;22.80;50.80;21.50;101720.00;;;;5051074;28;20306;-72
2022/05/17 09:11:20;;;;;;;4.60;1.13;;;22.80;50.70;21.50;101722.00;;;;5036468;28;20053;-72
2022/05/17 09:14:17;;;;;;;3.60;0.90;;;22.70;50.70;21.50;101714.00;;;;5051164;28;20076;-72
2022/05/17 09:17:15;;;;;;;1.55;0.80;;;22.80;50.80;21.50;101722.00;;;;5044838;28;20313;-72
2022/05/17 09:20:03;;;;;;;3.10;1.00;;;22.80;50.80;21.50;101723.00;;;;5056504;28;20515;-72
2022/05/17 09:22:50;;;;;;;2.75;1.00;;;22.80;50.70;21.50;101722.00;;;;5059936;28;20098;-72
2022/05/17 09:25:58;;;;;;;4.15;1.00;;;22.80;50.80;21.60;101729.00;;;;5043073;28;20048;-73
2022/05/17 09:28:48;;;;;;;3.03;0.82;;;22.80;50.50;21.50;101733.00;;;;5036195;28;20045;-72
2022/05/17 09:31:36;;;;;;;3.53;0.85;;;22.80;50.40;21.50;101740.00;;;;5044164;28;20037;-72
2022/05/17 09:34:37;;;;;;;1.85;0.73;;;22.80;50.70;21.60;101728.00;;;;5054814;28;20102;-72
2022/05/17 09:37:23;;;;;;;1.00;0.65;;;22.80;50.70;21.50;101737.00;;;;5051735;28;20068;-72
2022/05/17 09:40:21;;;;;;;3.00;1.00;;;22.70;50.60;21.60;101745.00;;;;5055158;28;20037;-72
2022/05/17 09:43:09;;;;;;;3.17;1.17;;;22.80;50.70;21.50;101736.00;;;;5058572;28;20041;-72
2022/05/17 09:45:58;;;;;;;3.10;1.25;;;22.80;50.60;21.60;101748.00;;;;5035359;28;20568;-72
2022/05/17 09:52:38;;;;;;;2.72;1.15;;;22.80;50.40;21.50;101755.00;;;;5046290;28;20037;-72
2022/05/17 09:55:28;;;;;;;2.83;0.80;;;22.80;50.60;21.50;101749.00;;;;5053318;28;20037;-72
2022/05/17 09:58:36;;;;;;;2.78;0.80;;;22.80;50.60;21.60;101753.00;;;;5047876;28;20037;-72
2022/05/17 10:01:28;;;;;;;4.22;0.75;;;22.80;50.50;21.60;101746.00;;;;5046633;28;20120;-72
2022/05/17 10:04:19;;;;;;;2.55;0.80;;;22.80;50.50;21.60;101752.00;;;;5032176;28;20033;-72
2022/05/17 10:07:09;;;;;;;3.85;1.08;;;22.80;50.50;21.60;101748.00;;;;5041534;28;20178;-73
2022/05/17 10:09:55;;;;;;;1.95;0.70;;;22.80;50.40;21.60;101750.00;;;;5025021;28;20038;-72
2022/05/17 10:12:41;;;;;;;2.92;0.80;;;22.80;50.40;21.60;101751.00;;;;5055524;28;20049;-72
2022/05/17 10:15:27;;;;;;;3.63;1.10;;;22.80;50.40;21.60;101747.00;;;;5033850;28;20504;-73
2022/05/17 10:18:29;;;;;;;3.65;0.90;;;22.80;50.40;21.60;101750.00;;;;5055620;28;20103;-72
2022/05/17 10:21:21;;;;;;;2.58;1.02;;;22.80;50.40;21.60;101742.00;;;;5046980;28;20046;-74
2022/05/17 10:24:35;;;;;;;3.47;0.93;;;22.80;50.40;21.60;101751.00;;;;5041496;28;20127;-73
2022/05/17 10:27:37;;;;;;;2.70;1.35;;;22.80;50.40;21.60;101749.00;;;;5045560;28;20959;-73
2022/05/17 10:30:44;;;;;;;3.42;0.90;;;22.70;50.30;21.60;101752.00;;;;5030885;28;20689;-73
2022/05/17 10:33:57;;;;;;;4.68;1.00;;;22.80;50.20;21.60;101746.00;;;;5059202;28;20037;-73
2022/05/17 10:36:46;;;;;;;4.75;1.08;;;22.80;50.40;21.60;101752.00;;;;5028374;28;20078;-73
2022/05/17 10:40:03;;;;;;;5.47;1.10;;;22.80;50.50;21.60;101758.00;;;;5049936;28;20076;-73
2022/05/17 10:42:49;;;;;;;3.65;0.93;;;22.80;50.50;21.60;101746.00;;;;5052534;28;20418;-72
2022/05/17 10:45:36;;;;;;;4.75;1.15;;;22.80;50.60;21.60;101747.00;;;;5041036;28;20055;-72
2022/05/17 10:49:00;;;;;;;3.17;1.27;;;22.70;50.60;21.60;101747.00;;;;5052707;28;20592;-72
2022/05/17 10:52:24;;;;;;;3.42;0.80;;;22.80;50.60;21.60;101744.00;;;;5048331;28;20134;-72
2022/05/17 10:55:14;;;;;;;2.22;1.02;;;22.80;50.60;21.60;101745.00;;;;5038682;28;20045;-72
2022/05/17 10:58:16;;;;;;;3.17;1.13;;;22.80;50.60;21.60;101750.00;;;;5040662;28;20048;-72
2022/05/17 11:01:12;;;;;;;2.42;1.17;;;22.80;50.70;21.60;101735.00;;;;5040344;28;20037;-72
2022/05/17 11:05:01;;;;;;;4.47;1.20;;;22.80;50.60;21.60;101741.00;;;;5037490;28;20045;-72
2022/05/17 11:08:12;;;;;;;2.47;0.88;;;22.80;50.60;21.60;101744.00;;;;5044051;28;20053;-71
2022/05/17 11:11:16;;;;;;;3.38;0.80;;;22.80;50.50;21.60;101734.00;;;;5054203;28;20510;-72
2022/05/17 11:14:31;;;;;;;3.78;0.93;;;22.80;50.50;21.60;101731.00;;;;5050981;28;20040;-71
2022/05/17 11:17:35;;;;;;;2.92;0.93;;;22.70;50.40;21.60;101726.00;;;;5042186;28;20166;-71
2022/05/17 11:20:52;;;;;;;4.20;1.10;;;22.80;50.50;21.60;101730.00;;;;5047460;28;20072;-71
2022/05/17 11:23:48;;;;;;;2.33;0.75;;;22.80;50.50;21.60;101723.00;;;;5039263;28;20045;-72
2022/05/17 11:26:58;;;;;;;3.80;0.93;;;22.80;50.50;21.60;101736.00;;;;5036768;28;20033;-71
2022/05/17 11:30:08;;;;;;;2.00;0.80;;;22.80;50.50;21.60;101738.00;;;;5055754;28;20048;-72
2022/05/17 11:33:31;;;;;;;1.58;0.82;;;22.80;50.60;21.60;101747.00;;;;5052688;28;20448;-72
2022/05/17 11:36:32;;;;;;;4.00;1.20;;;22.80;50.50;21.60;101739.00;;;;5048346;28;20406;-72
2022/05/17 11:39:41;;;;;;;2.92;1.10;;;22.80;50.60;21.60;101748.00;;;;5040825;28;20514;-72
2022/05/17 11:42:34;;;;;;;;;;;22.80;50.60;21.60;101748.00;;;;5044851;28;20561;-72
2022/05/17 11:45:22;;;;;;;3.00;1.00;;;22.80;50.70;21.60;101741.00;;;;5056833;28;19913;-72
2022/05/17 11:48:14;;;;;;;4.82;1.60;;;22.80;50.50;21.60;101736.00;;;;5040539;28;20041;-72
2022/05/17 11:51:01;;;;;;;5.80;1.33;;;22.80;50.70;21.60;101742.00;;;;5050714;28;20060;-73
2022/05/17 11:53:53;;;;;;;3.35;1.13;;;22.80;50.70;21.60;101750.00;;;;5043558;28;20755;-73
2022/05/17 11:56:41;;;;;;;6.47;1.50;;;22.80;50.80;21.60;101755.00;;;;5037965;28;20060;-72
2022/05/17 11:59:27;;;;;;;5.53;1.90;;;22.80;51.00;21.60;101754.00;;;;5057321;28;20414;-73
2022/05/17 12:02:13;;;;;;;5.82;1.55;;;22.80;51.90;21.60;101756.00;;;;5043859;28;20036;-72
2022/05/17 12:04:59;;;;;;;3.65;1.42;;;22.80;51.90;21.60;101761.00;;;;5053544;28;20037;-72
2022/05/17 12:07:46;;;;;;;5.05;1.73;;;22.90;51.50;21.60;101752.00;;;;5046970;28;20060;-72
2022/05/17 12:10:32;;;;;;;5.05;1.63;;;22.80;51.40;21.60;101760.00;;;;5026080;28;20041;-72
2022/05/17 12:13:19;;;;;;;4.68;1.75;;;22.80;51.50;21.60;101761.00;;;;5041556;28;20037;-72
2022/05/17 12:16:08;;;;;;;7.35;1.95;;;22.80;51.60;21.60;101767.00;;;;5040736;28;20041;-72
2022/05/17 12:19:25;;;;;;;4.32;1.65;;;22.80;51.70;21.60;101762.00;;;;5057840;28;20068;-72
2022/05/17 12:22:33;;;;;;;3.72;1.50;;;22.80;51.70;21.60;101762.00;;;;5037230;28;20132;-72
2022/05/17 12:25:49;;;;;;;2.80;1.30;;;22.80;51.70;21.60;101766.00;;;;5053886;28;20264;-71
2022/05/17 12:28:40;;;;;;;6.18;1.48;;;22.80;51.50;21.60;101767.00;;;;5032346;28;20037;-71
2022/05/17 12:31:26;;;;;;;2.10;1.05;;;22.80;51.50;21.60;101757.00;;;;5049051;28;20056;-71
2022/05/17 12:34:12;;;;;;;4.88;1.52;;;22.80;51.40;21.60;101756.00;;;;5029379;28;20053;-71
2022/05/17 12:37:13;;;;;;;3.60;1.63;;;22.80;51.40;21.60;101750.00;;;;5043207;28;20045;-71
2022/05/17 12:43:13;;;;;;;6.15;1.42;;;22.80;51.50;21.60;101764.00;;;;5043421;28;20381;-71